sensor_id;sensor_type;location;lat;lon;timestamp;P1;durP1;ratioP1;P2;durP2;ratioP2
16468;SDS011;8345;50.902;6.956;2022-08-03T00:01:04;5.13;;;3.77;;
16468;SDS011;8345;50.902;6.956;2022-08-03T00:03:31;3.77;;;3.27;;
16468;SDS011;8345;50.902;6.956;2022-08-03T00:06:00;4.70;;;3.67;;
16468;SDS011;8345;50.902;6.956;2022-08-03T00:08:28;3.87;;;3.57;;
16468;SDS011;8345;50.902;6.956;2022-08-03T00:10:55;4.27;;;3.87;;
16468;SDS011;8345;50.902;6.956;2022-08-03T00:13:22;4.33;;;3.70;;
16468;SDS011;8345;50.902;6.956;2022-08-03T00:15:49;3.87;;;3.20;;
16468;SDS011;8345;50.902;6.956;2022-08-03T00:18:17;3.73;;;3.43;;
16468;SDS011;8345;50.902;6.956;2022-08-03T00:20:44;3.50;;;3.20;;
16468;SDS011;8345;50.902;6.956;2022-08-03T00:23:12;3.83;;;3.53;;
16468;SDS011;8345;50.902;6.956;2022-08-03T00:25:40;4.23;;;3.67;;
16468;SDS011;8345;50.902;6.956;2022-08-03T00:28:07;3.83;;;3.47;;
16468;SDS011;8345;50.902;6.956;2022-08-03T00:30:34;4.17;;;3.50;;
16468;SDS011;8345;50.902;6.956;2022-08-03T00:33:02;3.80;;;3.50;;
16468;SDS011;8345;50.902;6.956;2022-08-03T00:35:29;3.93;;;3.53;;
16468;SDS011;8345;50.902;6.956;2022-08-03T00:37:57;3.97;;;3.57;;
16468;SDS011;8345;50.902;6.956;2022-08-03T00:40:25;4.43;;;3.67;;
16468;SDS011;8345;50.902;6.956;2022-08-03T00:42:54;5.27;;;3.73;;
16468;SDS011;8345;50.902;6.956;2022-08-03T00:45:23;4.17;;;3.83;;
16468;SDS011;8345;50.902;6.956;2022-08-03T00:47:51;4.20;;;3.80;;
16468;SDS011;8345;50.902;6.956;2022-08-03T00:50:19;3.60;;;3.30;;
16468;SDS011;8345;50.902;6.956;2022-08-03T00:52:47;3.87;;;3.57;;
16468;SDS011;8345;50.902;6.956;2022-08-03T00:55:14;3.93;;;3.60;;
16468;SDS011;8345;50.902;6.956;2022-08-03T00:57:43;4.10;;;3.47;;
16468;SDS011;8345;50.902;6.956;2022-08-03T01:00:11;3.90;;;3.40;;
16468;SDS011;8345;50.902;6.956;2022-08-03T01:02:39;4.33;;;3.87;;
16468;SDS011;8345;50.902;6.956;2022-08-03T01:05:06;3.70;;;3.37;;
16468;SDS011;8345;50.902;6.956;2022-08-03T01:07:36;4.07;;;3.50;;
16468;SDS011;8345;50.902;6.956;2022-08-03T01:10:11;6.37;;;4.07;;
16468;SDS011;8345;50.902;6.956;2022-08-03T01:12:43;3.97;;;3.67;;
16468;SDS011;8345;50.902;6.956;2022-08-03T01:15:16;4.03;;;3.57;;
16468;SDS011;8345;50.902;6.956;2022-08-03T01:17:48;4.70;;;3.80;;
16468;SDS011;8345;50.902;6.956;2022-08-03T01:20:16;4.00;;;3.67;;
16468;SDS011;8345;50.902;6.956;2022-08-03T01:22:50;4.50;;;4.10;;
16468;SDS011;8345;50.902;6.956;2022-08-03T01:25:27;4.20;;;3.80;;
16468;SDS011;8345;50.902;6.956;2022-08-03T01:28:01;4.63;;;3.97;;
16468;SDS011;8345;50.902;6.956;2022-08-03T01:30:31;4.33;;;3.60;;
16468;SDS011;8345;50.902;6.956;2022-08-03T01:32:59;5.50;;;3.57;;
16468;SDS011;8345;50.902;6.956;2022-08-03T01:35:30;4.10;;;3.77;;
16468;SDS011;8345;50.902;6.956;2022-08-03T01:37:59;4.03;;;3.73;;
16468;SDS011;8345;50.902;6.956;2022-08-03T01:40:28;5.57;;;3.43;;
16468;SDS011;8345;50.902;6.956;2022-08-03T01:42:56;4.17;;;3.73;;
16468;SDS011;8345;50.902;6.956;2022-08-03T01:45:25;3.77;;;3.37;;
16468;SDS011;8345;50.902;6.956;2022-08-03T01:47:55;5.03;;;3.80;;
16468;SDS011;8345;50.902;6.956;2022-08-03T01:50:23;3.40;;;3.20;;
16468;SDS011;8345;50.902;6.956;2022-08-03T01:52:50;4.03;;;3.73;;
16468;SDS011;8345;50.902;6.956;2022-08-03T01:55:19;5.47;;;3.73;;
16468;SDS011;8345;50.902;6.956;2022-08-03T01:57:47;3.97;;;3.67;;
16468;SDS011;8345;50.902;6.956;2022-08-03T02:00:16;5.17;;;3.90;;
16468;SDS011;8345;50.902;6.956;2022-08-03T02:02:44;3.97;;;3.57;;
16468;SDS011;8345;50.902;6.956;2022-08-03T02:05:14;5.53;;;3.57;;
16468;SDS011;8345;50.902;6.956;2022-08-03T02:07:42;3.97;;;3.57;;
16468;SDS011;8345;50.902;6.956;2022-08-03T02:10:11;5.13;;;3.13;;
16468;SDS011;8345;50.902;6.956;2022-08-03T02:12:39;5.27;;;4.10;;
16468;SDS011;8345;50.902;6.956;2022-08-03T02:15:08;3.97;;;3.60;;
16468;SDS011;8345;50.902;6.956;2022-08-03T02:17:37;3.97;;;3.57;;
16468;SDS011;8345;50.902;6.956;2022-08-03T02:20:04;4.73;;;3.97;;
16468;SDS011;8345;50.902;6.956;2022-08-03T02:22:33;4.40;;;4.10;;
16468;SDS011;8345;50.902;6.956;2022-08-03T02:25:01;3.57;;;3.27;;
16468;SDS011;8345;50.902;6.956;2022-08-03T02:27:29;4.03;;;3.63;;
16468;SDS011;8345;50.902;6.956;2022-08-03T02:30:01;4.20;;;3.80;;
16468;SDS011;8345;50.902;6.956;2022-08-03T02:32:30;3.83;;;3.53;;
16468;SDS011;8345;50.902;6.956;2022-08-03T02:34:58;4.33;;;3.93;;
16468;SDS011;8345;50.902;6.956;2022-08-03T02:37:27;4.20;;;3.90;;
16468;SDS011;8345;50.902;6.956;2022-08-03T02:39:58;4.40;;;4.00;;
16468;SDS011;8345;50.902;6.956;2022-08-03T02:42:27;3.60;;;3.30;;
16468;SDS011;8345;50.902;6.956;2022-08-03T02:44:55;3.93;;;3.60;;
16468;SDS011;8345;50.902;6.956;2022-08-03T02:47:24;4.70;;;3.67;;
16468;SDS011;8345;50.902;6.956;2022-08-03T02:49:53;4.10;;;3.80;;
16468;SDS011;8345;50.902;6.956;2022-08-03T02:52:21;4.13;;;3.83;;
16468;SDS011;8345;50.902;6.956;2022-08-03T02:54:49;4.17;;;3.77;;
16468;SDS011;8345;50.902;6.956;2022-08-03T02:57:19;4.00;;;3.70;;
16468;SDS011;8345;50.902;6.956;2022-08-03T02:59:47;4.20;;;3.90;;
16468;SDS011;8345;50.902;6.956;2022-08-03T03:02:15;3.83;;;3.53;;
16468;SDS011;8345;50.902;6.956;2022-08-03T03:04:43;3.37;;;2.97;;
16468;SDS011;8345;50.902;6.956;2022-08-03T03:07:11;5.07;;;4.10;;
16468;SDS011;8345;50.902;6.956;2022-08-03T03:09:38;3.57;;;3.27;;
16468;SDS011;8345;50.902;6.956;2022-08-03T03:12:06;5.17;;;3.80;;
16468;SDS011;8345;50.902;6.956;2022-08-03T03:14:35;4.10;;;3.60;;
16468;SDS011;8345;50.902;6.956;2022-08-03T03:17:02;4.40;;;4.00;;
16468;SDS011;8345;50.902;6.956;2022-08-03T03:19:30;4.73;;;3.73;;
16468;SDS011;8345;50.902;6.956;2022-08-03T03:21:58;5.13;;;3.63;;
16468;SDS011;8345;50.902;6.956;2022-08-03T03:24:26;4.33;;;3.40;;
16468;SDS011;8345;50.902;6.956;2022-08-03T03:26:54;4.90;;;3.47;;
16468;SDS011;8345;50.902;6.956;2022-08-03T03:29:21;4.23;;;3.93;;
16468;SDS011;8345;50.902;6.956;2022-08-03T03:31:50;3.93;;;3.53;;
16468;SDS011;8345;50.902;6.956;2022-08-03T03:34:18;4.37;;;4.07;;
16468;SDS011;8345;50.902;6.956;2022-08-03T03:36:45;5.30;;;4.20;;
16468;SDS011;8345;50.902;6.956;2022-08-03T03:39:12;4.90;;;4.27;;
16468;SDS011;8345;50.902;6.956;2022-08-03T03:41:40;4.40;;;4.03;;
16468;SDS011;8345;50.902;6.956;2022-08-03T03:44:07;3.80;;;3.50;;
16468;SDS011;8345;50.902;6.956;2022-08-03T03:46:34;4.37;;;3.83;;
16468;SDS011;8345;50.902;6.956;2022-08-03T03:49:03;3.67;;;3.37;;
16468;SDS011;8345;50.902;6.956;2022-08-03T03:51:31;4.10;;;3.70;;
16468;SDS011;8345;50.902;6.956;2022-08-03T03:53:59;3.80;;;3.40;;
16468;SDS011;8345;50.902;6.956;2022-08-03T03:56:26;4.23;;;3.93;;
16468;SDS011;8345;50.902;6.956;2022-08-03T03:58:54;3.83;;;3.53;;
16468;SDS011;8345;50.902;6.956;2022-08-03T04:01:21;4.07;;;3.77;;
16468;SDS011;8345;50.902;6.956;2022-08-03T04:03:49;3.83;;;3.40;;
16468;SDS011;8345;50.902;6.956;2022-08-03T04:06:18;4.47;;;4.07;;
16468;SDS011;8345;50.902;6.956;2022-08-03T04:09:03;4.20;;;3.90;;
16468;SDS011;8345;50.902;6.956;2022-08-03T04:11:49;4.00;;;3.70;;
16468;SDS011;8345;50.902;6.956;2022-08-03T04:14:18;3.57;;;3.27;;
16468;SDS011;8345;50.902;6.956;2022-08-03T04:16:45;4.00;;;3.70;;
16468;SDS011;8345;50.902;6.956;2022-08-03T04:19:16;4.10;;;3.70;;
16468;SDS011;8345;50.902;6.956;2022-08-03T04:21:46;4.60;;;4.10;;
16468;SDS011;8345;50.902;6.956;2022-08-03T04:24:14;4.40;;;4.00;;
16468;SDS011;8345;50.902;6.956;2022-08-03T04:26:42;4.03;;;3.73;;
16468;SDS011;8345;50.902;6.956;2022-08-03T04:29:09;4.30;;;3.90;;
16468;SDS011;8345;50.902;6.956;2022-08-03T04:31:37;3.90;;;3.60;;
16468;SDS011;8345;50.902;6.956;2022-08-03T04:34:05;3.90;;;3.57;;
16468;SDS011;8345;50.902;6.956;2022-08-03T04:36:35;5.47;;;3.73;;
16468;SDS011;8345;50.902;6.956;2022-08-03T04:39:05;3.90;;;3.40;;
16468;SDS011;8345;50.902;6.956;2022-08-03T04:41:34;4.00;;;3.70;;
16468;SDS011;8345;50.902;6.956;2022-08-03T04:44:01;4.00;;;3.70;;
16468;SDS011;8345;50.902;6.956;2022-08-03T04:46:31;3.50;;;3.20;;
16468;SDS011;8345;50.902;6.956;2022-08-03T04:49:00;5.73;;;3.80;;
16468;SDS011;8345;50.902;6.956;2022-08-03T04:51:28;4.33;;;3.70;;
16468;SDS011;8345;50.902;6.956;2022-08-03T04:53:55;4.00;;;3.60;;
16468;SDS011;8345;50.902;6.956;2022-08-03T04:56:24;4.30;;;4.00;;
16468;SDS011;8345;50.902;6.956;2022-08-03T04:58:52;5.43;;;3.97;;
16468;SDS011;8345;50.902;6.956;2022-08-03T05:01:19;4.17;;;3.73;;
16468;SDS011;8345;50.902;6.956;2022-08-03T05:03:47;4.40;;;3.57;;
16468;SDS011;8345;50.902;6.956;2022-08-03T05:06:15;3.70;;;3.40;;
16468;SDS011;8345;50.902;6.956;2022-08-03T05:08:42;5.00;;;3.60;;
16468;SDS011;8345;50.902;6.956;2022-08-03T05:11:09;3.97;;;3.60;;
16468;SDS011;8345;50.902;6.956;2022-08-03T05:13:38;4.27;;;3.97;;
16468;SDS011;8345;50.902;6.956;2022-08-03T05:16:05;3.90;;;3.60;;
16468;SDS011;8345;50.902;6.956;2022-08-03T05:18:32;4.83;;;4.33;;
16468;SDS011;8345;50.902;6.956;2022-08-03T05:21:00;6.70;;;4.80;;
16468;SDS011;8345;50.902;6.956;2022-08-03T05:23:27;5.53;;;4.03;;
16468;SDS011;8345;50.902;6.956;2022-08-03T05:25:55;5.77;;;4.40;;
16468;SDS011;8345;50.902;6.956;2022-08-03T05:28:22;4.57;;;4.17;;
16468;SDS011;8345;50.902;6.956;2022-08-03T05:30:51;4.55;;;3.70;;
16468;SDS011;8345;50.902;6.956;2022-08-03T05:33:18;3.92;;;3.50;;
16468;SDS011;8345;50.902;6.956;2022-08-03T05:35:45;5.00;;;4.20;;
16468;SDS011;8345;50.902;6.956;2022-08-03T05:38:12;4.23;;;3.77;;
16468;SDS011;8345;50.902;6.956;2022-08-03T05:40:39;5.03;;;3.97;;
16468;SDS011;8345;50.902;6.956;2022-08-03T05:43:07;5.27;;;4.23;;
16468;SDS011;8345;50.902;6.956;2022-08-03T05:45:35;4.60;;;4.00;;
16468;SDS011;8345;50.902;6.956;2022-08-03T05:48:04;4.53;;;4.13;;
16468;SDS011;8345;50.902;6.956;2022-08-03T05:50:31;4.47;;;4.13;;
16468;SDS011;8345;50.902;6.956;2022-08-03T05:53:00;6.00;;;4.50;;
16468;SDS011;8345;50.902;6.956;2022-08-03T05:55:27;4.97;;;3.73;;
16468;SDS011;8345;50.902;6.956;2022-08-03T05:57:54;4.47;;;3.60;;
16468;SDS011;8345;50.902;6.956;2022-08-03T06:00:22;6.90;;;4.40;;
16468;SDS011;8345;50.902;6.956;2022-08-03T06:02:49;6.40;;;4.25;;
16468;SDS011;8345;50.902;6.956;2022-08-03T06:05:18;4.85;;;4.43;;
16468;SDS011;8345;50.902;6.956;2022-08-03T06:07:45;4.82;;;4.20;;
16468;SDS011;8345;50.902;6.956;2022-08-03T06:10:12;7.53;;;4.63;;
16468;SDS011;8345;50.902;6.956;2022-08-03T06:12:40;4.80;;;4.40;;
16468;SDS011;8345;50.902;6.956;2022-08-03T06:15:09;6.63;;;4.13;;
16468;SDS011;8345;50.902;6.956;2022-08-03T06:17:43;6.07;;;4.25;;
16468;SDS011;8345;50.902;6.956;2022-08-03T06:20:11;5.63;;;4.45;;
16468;SDS011;8345;50.902;6.956;2022-08-03T06:22:39;5.60;;;4.38;;
16468;SDS011;8345;50.902;6.956;2022-08-03T06:25:07;4.90;;;4.25;;
16468;SDS011;8345;50.902;6.956;2022-08-03T06:27:34;4.15;;;3.83;;
16468;SDS011;8345;50.902;6.956;2022-08-03T06:30:04;5.20;;;4.45;;
16468;SDS011;8345;50.902;6.956;2022-08-03T06:32:32;5.70;;;4.55;;
16468;SDS011;8345;50.902;6.956;2022-08-03T06:34:59;3.85;;;3.40;;
16468;SDS011;8345;50.902;6.956;2022-08-03T06:37:26;5.18;;;4.40;;
16468;SDS011;8345;50.902;6.956;2022-08-03T06:39:55;4.35;;;3.95;;
16468;SDS011;8345;50.902;6.956;2022-08-03T06:42:22;5.32;;;3.90;;
16468;SDS011;8345;50.902;6.956;2022-08-03T06:44:55;5.00;;;4.53;;
16468;SDS011;8345;50.902;6.956;2022-08-03T06:47:23;5.43;;;3.50;;
16468;SDS011;8345;50.902;6.956;2022-08-03T06:49:50;5.60;;;4.03;;
16468;SDS011;8345;50.902;6.956;2022-08-03T06:52:17;4.53;;;3.60;;
16468;SDS011;8345;50.902;6.956;2022-08-03T06:54:45;4.40;;;4.00;;
16468;SDS011;8345;50.902;6.956;2022-08-03T06:57:14;5.47;;;4.50;;
16468;SDS011;8345;50.902;6.956;2022-08-03T06:59:42;6.28;;;4.55;;
16468;SDS011;8345;50.902;6.956;2022-08-03T07:02:10;5.18;;;3.83;;
16468;SDS011;8345;50.902;6.956;2022-08-03T07:04:37;4.45;;;4.03;;
16468;SDS011;8345;50.902;6.956;2022-08-03T07:07:04;5.95;;;4.13;;
16468;SDS011;8345;50.902;6.956;2022-08-03T07:09:31;4.63;;;3.78;;
16468;SDS011;8345;50.902;6.956;2022-08-03T07:11:58;4.25;;;3.72;;
16468;SDS011;8345;50.902;6.956;2022-08-03T07:14:28;4.07;;;3.78;;
16468;SDS011;8345;50.902;6.956;2022-08-03T07:16:55;4.30;;;3.90;;
16468;SDS011;8345;50.902;6.956;2022-08-03T07:19:23;5.82;;;3.65;;
16468;SDS011;8345;50.902;6.956;2022-08-03T07:21:50;4.43;;;4.05;;
16468;SDS011;8345;50.902;6.956;2022-08-03T07:24:18;4.53;;;4.10;;
16468;SDS011;8345;50.902;6.956;2022-08-03T07:26:45;4.03;;;3.63;;
16468;SDS011;8345;50.902;6.956;2022-08-03T07:29:12;4.60;;;3.58;;
16468;SDS011;8345;50.902;6.956;2022-08-03T07:31:44;3.78;;;3.30;;
16468;SDS011;8345;50.902;6.956;2022-08-03T07:34:11;4.00;;;2.80;;
16468;SDS011;8345;50.902;6.956;2022-08-03T07:36:38;4.82;;;4.03;;
16468;SDS011;8345;50.902;6.956;2022-08-03T07:39:05;3.85;;;3.47;;
16468;SDS011;8345;50.902;6.956;2022-08-03T07:41:33;3.35;;;3.05;;
16468;SDS011;8345;50.902;6.956;2022-08-03T07:44:00;4.00;;;3.60;;
16468;SDS011;8345;50.902;6.956;2022-08-03T07:46:27;4.78;;;3.60;;
16468;SDS011;8345;50.902;6.956;2022-08-03T07:48:56;3.80;;;3.50;;
16468;SDS011;8345;50.902;6.956;2022-08-03T07:51:23;6.80;;;3.95;;
16468;SDS011;8345;50.902;6.956;2022-08-03T07:53:50;5.00;;;3.38;;
16468;SDS011;8345;50.902;6.956;2022-08-03T07:56:19;3.42;;;3.13;;
16468;SDS011;8345;50.902;6.956;2022-08-03T07:58:46;3.65;;;2.97;;
16468;SDS011;8345;50.902;6.956;2022-08-03T08:01:13;4.07;;;3.08;;
16468;SDS011;8345;50.902;6.956;2022-08-03T08:03:43;3.45;;;3.05;;
16468;SDS011;8345;50.902;6.956;2022-08-03T08:06:12;5.72;;;3.22;;
16468;SDS011;8345;50.902;6.956;2022-08-03T08:08:39;5.65;;;3.47;;
16468;SDS011;8345;50.902;6.956;2022-08-03T08:11:06;4.28;;;3.60;;
16468;SDS011;8345;50.902;6.956;2022-08-03T08:13:34;3.50;;;3.20;;
16468;SDS011;8345;50.902;6.956;2022-08-03T08:16:02;4.32;;;3.45;;
16468;SDS011;8345;50.902;6.956;2022-08-03T08:18:30;4.32;;;3.78;;
16468;SDS011;8345;50.902;6.956;2022-08-03T08:20:58;5.90;;;3.40;;
16468;SDS011;8345;50.902;6.956;2022-08-03T08:23:28;4.82;;;3.63;;
16468;SDS011;8345;50.902;6.956;2022-08-03T08:25:55;5.50;;;4.13;;
16468;SDS011;8345;50.902;6.956;2022-08-03T08:28:23;4.28;;;3.80;;
16468;SDS011;8345;50.902;6.956;2022-08-03T08:30:50;4.88;;;3.13;;
16468;SDS011;8345;50.902;6.956;2022-08-03T08:33:17;4.60;;;3.63;;
16468;SDS011;8345;50.902;6.956;2022-08-03T08:35:44;4.30;;;3.90;;
16468;SDS011;8345;50.902;6.956;2022-08-03T08:38:15;3.75;;;3.40;;
16468;SDS011;8345;50.902;6.956;2022-08-03T08:40:44;3.10;;;2.90;;
16468;SDS011;8345;50.902;6.956;2022-08-03T08:43:11;4.32;;;3.85;;
16468;SDS011;8345;50.902;6.956;2022-08-03T08:45:39;6.43;;;3.47;;
16468;SDS011;8345;50.902;6.956;2022-08-03T08:48:06;4.18;;;3.33;;
16468;SDS011;8345;50.902;6.956;2022-08-03T08:50:35;4.43;;;3.00;;
16468;SDS011;8345;50.902;6.956;2022-08-03T08:53:03;4.85;;;3.38;;
16468;SDS011;8345;50.902;6.956;2022-08-03T08:55:33;6.00;;;3.53;;
16468;SDS011;8345;50.902;6.956;2022-08-03T08:58:04;3.38;;;2.72;;
16468;SDS011;8345;50.902;6.956;2022-08-03T09:00:32;2.95;;;2.65;;
16468;SDS011;8345;50.902;6.956;2022-08-03T09:02:59;4.53;;;3.20;;
16468;SDS011;8345;50.902;6.956;2022-08-03T09:05:27;3.30;;;2.33;;
16468;SDS011;8345;50.902;6.956;2022-08-03T09:07:56;4.50;;;2.50;;
16468;SDS011;8345;50.902;6.956;2022-08-03T09:10:24;4.45;;;2.30;;
16468;SDS011;8345;50.902;6.956;2022-08-03T09:12:51;4.03;;;2.65;;
16468;SDS011;8345;50.902;6.956;2022-08-03T09:15:21;5.53;;;3.10;;
16468;SDS011;8345;50.902;6.956;2022-08-03T09:17:50;4.20;;;2.47;;
16468;SDS011;8345;50.902;6.956;2022-08-03T09:20:18;3.90;;;2.60;;
16468;SDS011;8345;50.902;6.956;2022-08-03T09:22:52;5.05;;;2.55;;
16468;SDS011;8345;50.902;6.956;2022-08-03T09:25:25;4.97;;;3.10;;
16468;SDS011;8345;50.902;6.956;2022-08-03T09:27:53;5.93;;;3.15;;
16468;SDS011;8345;50.902;6.956;2022-08-03T09:30:21;5.43;;;3.10;;
16468;SDS011;8345;50.902;6.956;2022-08-03T09:32:49;3.20;;;2.70;;
16468;SDS011;8345;50.902;6.956;2022-08-03T09:35:16;5.40;;;2.78;;
16468;SDS011;8345;50.902;6.956;2022-08-03T09:38:07;6.28;;;2.95;;
16468;SDS011;8345;50.902;6.956;2022-08-03T09:40:34;4.50;;;2.65;;
16468;SDS011;8345;50.902;6.956;2022-08-03T09:43:02;5.72;;;2.88;;
16468;SDS011;8345;50.902;6.956;2022-08-03T09:45:33;5.63;;;2.95;;
16468;SDS011;8345;50.902;6.956;2022-08-03T09:48:19;4.30;;;2.70;;
16468;SDS011;8345;50.902;6.956;2022-08-03T09:50:47;11.50;;;2.75;;
16468;SDS011;8345;50.902;6.956;2022-08-03T09:53:15;5.35;;;2.67;;
16468;SDS011;8345;50.902;6.956;2022-08-03T09:55:49;6.72;;;2.65;;
16468;SDS011;8345;50.902;6.956;2022-08-03T09:58:16;5.93;;;2.60;;
16468;SDS011;8345;50.902;6.956;2022-08-03T10:00:52;3.17;;;2.60;;
16468;SDS011;8345;50.902;6.956;2022-08-03T10:03:20;3.25;;;2.67;;
16468;SDS011;8345;50.902;6.956;2022-08-03T10:05:48;4.47;;;2.38;;
16468;SDS011;8345;50.902;6.956;2022-08-03T10:08:15;2.67;;;1.95;;
16468;SDS011;8345;50.902;6.956;2022-08-03T10:10:43;4.63;;;2.50;;
16468;SDS011;8345;50.902;6.956;2022-08-03T10:13:11;4.70;;;1.95;;
16468;SDS011;8345;50.902;6.956;2022-08-03T10:15:39;6.85;;;2.10;;
16468;SDS011;8345;50.902;6.956;2022-08-03T10:18:08;4.93;;;1.48;;
16468;SDS011;8345;50.902;6.956;2022-08-03T10:20:36;3.00;;;1.38;;
16468;SDS011;8345;50.902;6.956;2022-08-03T10:23:03;2.30;;;1.30;;
16468;SDS011;8345;50.902;6.956;2022-08-03T10:25:31;2.17;;;1.98;;
16468;SDS011;8345;50.902;6.956;2022-08-03T10:28:00;13.73;;;2.88;;
16468;SDS011;8345;50.902;6.956;2022-08-03T10:30:28;2.35;;;2.00;;
16468;SDS011;8345;50.902;6.956;2022-08-03T10:32:58;3.60;;;1.80;;
16468;SDS011;8345;50.902;6.956;2022-08-03T10:35:29;3.35;;;1.48;;
16468;SDS011;8345;50.902;6.956;2022-08-03T10:37:57;4.18;;;2.00;;
16468;SDS011;8345;50.902;6.956;2022-08-03T10:40:26;3.67;;;2.30;;
16468;SDS011;8345;50.902;6.956;2022-08-03T10:42:54;2.67;;;2.15;;
16468;SDS011;8345;50.902;6.956;2022-08-03T10:45:23;2.85;;;1.80;;
16468;SDS011;8345;50.902;6.956;2022-08-03T10:47:52;3.67;;;2.15;;
16468;SDS011;8345;50.902;6.956;2022-08-03T10:50:21;3.78;;;2.30;;
16468;SDS011;8345;50.902;6.956;2022-08-03T10:52:56;6.03;;;1.80;;
16468;SDS011;8345;50.902;6.956;2022-08-03T10:55:28;3.33;;;2.28;;
16468;SDS011;8345;50.902;6.956;2022-08-03T10:58:12;3.78;;;2.25;;
16468;SDS011;8345;50.902;6.956;2022-08-03T11:00:47;3.30;;;2.15;;
16468;SDS011;8345;50.902;6.956;2022-08-03T11:03:14;4.78;;;2.30;;
16468;SDS011;8345;50.902;6.956;2022-08-03T11:05:43;3.13;;;2.15;;
16468;SDS011;8345;50.902;6.956;2022-08-03T11:08:19;3.95;;;2.25;;
16468;SDS011;8345;50.902;6.956;2022-08-03T11:10:46;4.60;;;2.33;;
16468;SDS011;8345;50.902;6.956;2022-08-03T11:13:15;3.97;;;2.08;;
16468;SDS011;8345;50.902;6.956;2022-08-03T11:15:43;3.42;;;2.17;;
16468;SDS011;8345;50.902;6.956;2022-08-03T11:18:10;3.17;;;1.92;;
16468;SDS011;8345;50.902;6.956;2022-08-03T11:20:45;5.40;;;2.60;;
16468;SDS011;8345;50.902;6.956;2022-08-03T11:23:13;3.83;;;2.30;;
16468;SDS011;8345;50.902;6.956;2022-08-03T11:28:27;4.18;;;2.03;;
16468;SDS011;8345;50.902;6.956;2022-08-03T11:30:54;2.47;;;2.20;;
16468;SDS011;8345;50.902;6.956;2022-08-03T11:33:28;2.72;;;2.35;;
16468;SDS011;8345;50.902;6.956;2022-08-03T11:35:59;3.45;;;1.80;;
16468;SDS011;8345;50.902;6.956;2022-08-03T11:38:27;4.40;;;2.78;;
16468;SDS011;8345;50.902;6.956;2022-08-03T11:40:54;5.07;;;1.95;;
16468;SDS011;8345;50.902;6.956;2022-08-03T11:46:11;4.28;;;2.00;;
16468;SDS011;8345;50.902;6.956;2022-08-03T11:48:42;4.63;;;2.20;;
16468;SDS011;8345;50.902;6.956;2022-08-03T11:51:17;5.00;;;2.22;;
16468;SDS011;8345;50.902;6.956;2022-08-03T11:53:45;2.20;;;1.90;;
16468;SDS011;8345;50.902;6.956;2022-08-03T11:56:12;4.82;;;2.33;;
16468;SDS011;8345;50.902;6.956;2022-08-03T11:58:45;3.85;;;2.20;;
16468;SDS011;8345;50.902;6.956;2022-08-03T12:01:14;3.08;;;2.10;;
16468;SDS011;8345;50.902;6.956;2022-08-03T12:03:42;2.33;;;2.08;;
16468;SDS011;8345;50.902;6.956;2022-08-03T12:06:09;4.30;;;2.03;;
16468;SDS011;8345;50.902;6.956;2022-08-03T12:08:37;5.50;;;2.20;;
16468;SDS011;8345;50.902;6.956;2022-08-03T12:11:06;3.83;;;2.15;;
16468;SDS011;8345;50.902;6.956;2022-08-03T12:13:38;3.35;;;1.98;;
16468;SDS011;8345;50.902;6.956;2022-08-03T12:16:06;4.07;;;2.03;;
16468;SDS011;8345;50.902;6.956;2022-08-03T12:18:34;4.78;;;2.10;;
16468;SDS011;8345;50.902;6.956;2022-08-03T12:21:03;5.13;;;1.98;;
16468;SDS011;8345;50.902;6.956;2022-08-03T12:23:30;2.78;;;1.52;;
16468;SDS011;8345;50.902;6.956;2022-08-03T12:26:00;2.15;;;1.85;;
16468;SDS011;8345;50.902;6.956;2022-08-03T12:28:27;3.70;;;1.90;;
16468;SDS011;8345;50.902;6.956;2022-08-03T12:30:55;2.45;;;1.77;;
16468;SDS011;8345;50.902;6.956;2022-08-03T12:33:22;4.78;;;1.60;;
16468;SDS011;8345;50.902;6.956;2022-08-03T12:36:03;4.90;;;2.08;;
16468;SDS011;8345;50.902;6.956;2022-08-03T12:38:31;3.83;;;1.85;;
16468;SDS011;8345;50.902;6.956;2022-08-03T12:41:00;4.20;;;1.90;;
16468;SDS011;8345;50.902;6.956;2022-08-03T12:43:27;2.85;;;2.60;;
16468;SDS011;8345;50.902;6.956;2022-08-03T12:46:11;2.85;;;2.00;;
16468;SDS011;8345;50.902;6.956;2022-08-03T12:48:57;5.05;;;2.28;;
16468;SDS011;8345;50.902;6.956;2022-08-03T12:51:26;5.45;;;1.90;;
16468;SDS011;8345;50.902;6.956;2022-08-03T12:53:53;2.83;;;2.00;;
16468;SDS011;8345;50.902;6.956;2022-08-03T12:56:21;3.63;;;1.85;;
16468;SDS011;8345;50.902;6.956;2022-08-03T12:58:48;1.95;;;1.70;;
16468;SDS011;8345;50.902;6.956;2022-08-03T13:01:15;4.57;;;1.98;;
16468;SDS011;8345;50.902;6.956;2022-08-03T13:03:43;2.97;;;1.80;;
16468;SDS011;8345;50.902;6.956;2022-08-03T13:06:11;2.58;;;1.73;;
16468;SDS011;8345;50.902;6.956;2022-08-03T13:08:40;3.72;;;1.90;;
16468;SDS011;8345;50.902;6.956;2022-08-03T13:13:53;2.88;;;2.03;;
16468;SDS011;8345;50.902;6.956;2022-08-03T13:16:21;2.15;;;1.63;;
16468;SDS011;8345;50.902;6.956;2022-08-03T13:18:48;3.80;;;1.90;;
16468;SDS011;8345;50.902;6.956;2022-08-03T13:21:17;1.98;;;1.50;;
16468;SDS011;8345;50.902;6.956;2022-08-03T13:23:46;3.45;;;1.70;;
16468;SDS011;8345;50.902;6.956;2022-08-03T13:26:13;2.38;;;1.70;;
16468;SDS011;8345;50.902;6.956;2022-08-03T13:28:41;4.25;;;1.80;;
16468;SDS011;8345;50.902;6.956;2022-08-03T13:31:08;2.55;;;1.65;;
16468;SDS011;8345;50.902;6.956;2022-08-03T13:33:35;5.32;;;2.22;;
16468;SDS011;8345;50.902;6.956;2022-08-03T13:36:04;3.75;;;1.98;;
16468;SDS011;8345;50.902;6.956;2022-08-03T13:38:31;1.92;;;1.73;;
16468;SDS011;8345;50.902;6.956;2022-08-03T13:41:00;5.68;;;2.08;;
16468;SDS011;8345;50.902;6.956;2022-08-03T13:43:28;4.07;;;1.70;;
16468;SDS011;8345;50.902;6.956;2022-08-03T13:45:55;1.95;;;1.73;;
16468;SDS011;8345;50.902;6.956;2022-08-03T13:48:22;3.10;;;1.70;;
16468;SDS011;8345;50.902;6.956;2022-08-03T13:50:49;3.03;;;1.90;;
16468;SDS011;8345;50.902;6.956;2022-08-03T13:53:17;3.38;;;1.80;;
16468;SDS011;8345;50.902;6.956;2022-08-03T13:55:44;3.58;;;1.83;;
16468;SDS011;8345;50.902;6.956;2022-08-03T13:58:12;3.13;;;1.52;;
16468;SDS011;8345;50.902;6.956;2022-08-03T14:00:40;3.67;;;1.80;;
16468;SDS011;8345;50.902;6.956;2022-08-03T14:03:07;3.30;;;1.95;;
16468;SDS011;8345;50.902;6.956;2022-08-03T14:05:34;3.08;;;1.70;;
16468;SDS011;8345;50.902;6.956;2022-08-03T14:08:02;4.60;;;2.13;;
16468;SDS011;8345;50.902;6.956;2022-08-03T14:10:31;2.13;;;1.58;;
16468;SDS011;8345;50.902;6.956;2022-08-03T14:12:58;4.00;;;1.70;;
16468;SDS011;8345;50.902;6.956;2022-08-03T14:15:27;2.25;;;1.67;;
16468;SDS011;8345;50.902;6.956;2022-08-03T14:17:54;3.60;;;1.90;;
16468;SDS011;8345;50.902;6.956;2022-08-03T14:20:21;4.22;;;1.60;;
16468;SDS011;8345;50.902;6.956;2022-08-03T14:22:49;2.10;;;1.50;;
16468;SDS011;8345;50.902;6.956;2022-08-03T14:25:16;2.20;;;1.55;;
16468;SDS011;8345;50.902;6.956;2022-08-03T14:27:43;6.28;;;1.90;;
16468;SDS011;8345;50.902;6.956;2022-08-03T14:30:11;1.70;;;1.60;;
16468;SDS011;8345;50.902;6.956;2022-08-03T14:32:40;2.30;;;1.83;;
16468;SDS011;8345;50.902;6.956;2022-08-03T14:35:07;1.80;;;1.67;;
16468;SDS011;8345;50.902;6.956;2022-08-03T14:37:35;2.95;;;1.70;;
16468;SDS011;8345;50.902;6.956;2022-08-03T14:40:03;3.13;;;1.88;;
16468;SDS011;8345;50.902;6.956;2022-08-03T14:42:30;2.00;;;1.80;;
16468;SDS011;8345;50.902;6.956;2022-08-03T14:44:57;5.95;;;2.08;;
16468;SDS011;8345;50.902;6.956;2022-08-03T14:47:24;3.13;;;1.63;;
16468;SDS011;8345;50.902;6.956;2022-08-03T14:49:53;2.15;;;1.55;;
16468;SDS011;8345;50.902;6.956;2022-08-03T14:52:20;3.05;;;1.70;;
16468;SDS011;8345;50.902;6.956;2022-08-03T14:54:48;3.42;;;1.98;;
16468;SDS011;8345;50.902;6.956;2022-08-03T14:57:15;3.08;;;2.00;;
16468;SDS011;8345;50.902;6.956;2022-08-03T14:59:42;3.50;;;1.70;;
16468;SDS011;8345;50.902;6.956;2022-08-03T15:02:09;3.65;;;1.45;;
16468;SDS011;8345;50.902;6.956;2022-08-03T15:04:36;3.83;;;1.63;;
16468;SDS011;8345;50.902;6.956;2022-08-03T15:07:05;3.42;;;1.77;;
16468;SDS011;8345;50.902;6.956;2022-08-03T15:09:32;4.05;;;1.77;;
16468;SDS011;8345;50.902;6.956;2022-08-03T15:11:59;4.43;;;1.75;;
16468;SDS011;8345;50.902;6.956;2022-08-03T15:14:26;1.60;;;1.30;;
16468;SDS011;8345;50.902;6.956;2022-08-03T15:16:54;3.50;;;1.60;;